Fort Chipewyan, Canada
Current Conditions -  °F | °C
As of 2:00 AM on Thursday 27 Nov 2014 (Local Time) from CYPY Reporting Station
Clear Clear  
Wind Chill: -11°   Ceiling: Unl
Heat Index: -11°   Visibility: 9mi
Dew Point: -15°   Wind: 2mph
Humidity: 84%   Direction: 260°W
Pressure: 30.43"   Gusts: NA
Location:  58.71°N, 111.15°W
Report Text: CYPY 270900Z AUTO 26002KT 9SM CLR M24/M26 A3043 RMK SLP335
Loading
Personal Weather Stations






























Interactive Weather Map New forecast layout! Learn more

10-Day Weather Forecast

Advertisements
Track Severe Weather on mobile